Time;durP1;ratioP1;P1;durP2;ratioP2;P2;SDS_P1;SDS_P2;PMS_P1;PMS_P2;Temp;Humidity;BMP_temperature;BMP_pressure;BME280_temperature;BME280_humidity;BME280_pressure;Samples;Min_cycle;Max_cycle;Signal;HPM_P1;HPM_P2
2023/09/14 00:00:51;;;;;;;9.03;1.87;;;13.40;99.90;;;;;;4960337;29;20203;-80
2023/09/14 00:03:17;;;;;;;11.93;2.37;;;13.40;99.90;;;;;;4960792;28;20182;-81
2023/09/14 00:05:44;;;;;;;6.70;1.90;;;13.40;99.90;;;;;;4961161;28;20542;-81
2023/09/14 00:08:10;;;;;;;9.70;2.40;;;13.30;99.90;;;;;;4958599;28;20662;-80
2023/09/14 00:10:36;;;;;;;8.07;1.90;;;13.30;99.90;;;;;;4958530;29;20179;-80
2023/09/14 00:13:03;;;;;;;5.93;1.77;;;13.30;99.90;;;;;;4959762;29;20187;-80
2023/09/14 00:15:29;;;;;;;6.57;2.03;;;13.20;99.90;;;;;;4961019;29;20179;-80
2023/09/14 00:17:54;;;;;;;7.77;2.00;;;13.30;99.90;;;;;;4960929;28;20214;-83
2023/09/14 00:20:26;;;;;;;9.50;1.87;;;13.20;99.90;;;;;;4961298;28;20226;-80
2023/09/14 00:22:52;;;;;;;4.03;1.90;;;13.20;99.90;;;;;;4960687;29;20195;-80
2023/09/14 00:25:19;;;;;;;6.57;1.73;;;13.20;99.90;;;;;;4960532;29;20202;-80
2023/09/14 00:27:44;;;;;;;4.73;1.60;;;13.10;99.90;;;;;;4960537;29;20192;-80
2023/09/14 00:30:10;;;;;;;3.10;1.83;;;13.10;99.90;;;;;;4960726;29;20187;-80
2023/09/14 00:32:39;;;;;;;5.40;1.97;;;13.10;99.90;;;;;;4960273;28;20218;-80
2023/09/14 00:35:09;;;;;;;4.00;1.90;;;13.10;99.90;;;;;;4961504;28;20212;-80
2023/09/14 00:37:35;;;;;;;7.07;2.03;;;13.00;99.90;;;;;;4958680;28;20203;-80
2023/09/14 00:40:09;;;;;;;9.57;1.97;;;13.00;99.90;;;;;;4960865;29;20178;-80
2023/09/14 00:42:39;;;;;;;5.47;1.80;;;13.00;99.90;;;;;;4959412;28;20254;-80
2023/09/14 00:45:20;;;;;;;6.80;2.00;;;12.90;99.90;;;;;;4959518;29;20269;-80
2023/09/14 00:47:57;;;;;;;9.07;2.00;;;13.00;99.90;;;;;;4959867;28;20182;-80
2023/09/14 00:50:23;;;;;;;10.33;2.00;;;12.90;99.90;;;;;;4959475;29;20273;-81
2023/09/14 00:52:58;;;;;;;10.30;1.90;;;12.80;99.90;;;;;;4959430;29;20693;-82
2023/09/14 00:55:25;;;;;;;4.97;1.83;;;12.80;99.90;;;;;;4958409;29;20214;-80
2023/09/14 00:57:51;;;;;;;8.63;2.00;;;12.80;99.90;;;;;;4959636;29;20690;-80
2023/09/14 01:00:18;;;;;;;6.70;1.83;;;12.80;99.90;;;;;;4960108;29;20262;-80
2023/09/14 01:02:44;;;;;;;6.60;2.50;;;12.70;99.90;;;;;;4958477;29;20234;-80
2023/09/14 01:05:12;;;;;;;10.43;1.90;;;12.60;99.90;;;;;;4958518;29;20183;-80
2023/09/14 01:07:39;;;;;;;5.03;2.17;;;12.60;99.90;;;;;;4959816;29;20295;-80
2023/09/14 01:10:05;;;;;;;5.23;2.10;;;12.60;99.90;;;;;;4958246;29;20274;-80
2023/09/14 01:12:32;;;;;;;11.13;2.20;;;12.50;99.90;;;;;;4958191;29;20209;-80
2023/09/14 01:15:17;;;;;;;4.63;2.37;;;12.50;99.90;;;;;;4957528;29;20562;-80
2023/09/14 01:18:05;;;;;;;4.33;2.40;;;12.50;99.90;;;;;;4958188;28;20207;-80
2023/09/14 01:21:05;;;;;;;7.27;2.07;;;12.50;99.90;;;;;;4958930;28;20186;-81
2023/09/14 01:23:48;;;;;;;8.63;2.40;;;12.50;99.90;;;;;;4960529;29;20170;-80
2023/09/14 01:26:15;;;;;;;6.37;2.10;;;12.40;99.90;;;;;;4960044;29;20202;-80
2023/09/14 01:28:41;;;;;;;7.50;2.27;;;12.40;99.90;;;;;;4959355;29;20244;-80
2023/09/14 01:31:06;;;;;;;5.10;2.23;;;12.30;99.90;;;;;;4960059;28;20254;-80
2023/09/14 01:33:32;;;;;;;3.33;1.93;;;12.30;99.90;;;;;;4959929;28;20233;-79
2023/09/14 01:36:20;;;;;;;6.60;2.10;;;12.30;99.90;;;;;;4958861;28;20266;-80
2023/09/14 01:38:47;;;;;;;5.23;1.87;;;12.30;99.90;;;;;;4958393;29;20206;-80
2023/09/14 01:41:14;;;;;;;5.60;2.00;;;12.30;99.90;;;;;;4957968;29;20205;-80
2023/09/14 01:43:40;;;;;;;3.83;2.10;;;12.30;99.90;;;;;;4958895;29;20264;-80
2023/09/14 01:46:07;;;;;;;3.90;1.70;;;12.20;99.90;;;;;;4961503;28;20186;-80
2023/09/14 01:48:32;;;;;;;7.80;2.10;;;12.20;99.90;;;;;;4976377;28;20194;-80
2023/09/14 01:50:58;;;;;;;7.00;1.93;;;12.20;99.90;;;;;;4976347;28;20293;-80
2023/09/14 01:53:23;;;;;;;5.43;2.07;;;12.20;99.90;;;;;;4983628;28;20182;-80
2023/09/14 01:55:49;;;;;;;4.17;2.03;;;12.10;99.90;;;;;;4987231;28;20229;-80
2023/09/14 01:58:15;;;;;;;6.37;1.93;;;12.10;99.90;;;;;;4979142;28;20717;-80
2023/09/14 02:00:40;;;;;;;3.63;2.03;;;12.10;99.90;;;;;;4978305;28;20182;-80
2023/09/14 02:03:06;;;;;;;5.23;2.00;;;12.10;99.90;;;;;;4979346;28;20232;-80
2023/09/14 02:05:31;;;;;;;7.20;2.10;;;12.10;99.90;;;;;;4979719;28;20163;-80
2023/09/14 02:07:57;;;;;;;6.43;2.07;;;12.10;99.90;;;;;;4979671;28;20566;-80
2023/09/14 02:10:22;;;;;;;7.73;1.93;;;12.10;99.90;;;;;;4978498;28;20237;-80
2023/09/14 02:12:51;;;;;;;5.07;1.80;;;12.10;99.90;;;;;;4977352;28;20202;-80
2023/09/14 02:15:17;;;;;;;6.50;2.23;;;12.10;99.90;;;;;;4977446;28;20188;-80
2023/09/14 02:17:43;;;;;;;6.50;2.20;;;12.10;99.90;;;;;;4979233;28;20190;-80
2023/09/14 02:20:09;;;;;;;5.87;2.13;;;12.10;99.90;;;;;;4977896;28;20181;-80
2023/09/14 02:22:35;;;;;;;8.43;2.30;;;12.10;99.90;;;;;;4977749;28;20249;-80
2023/09/14 02:25:01;;;;;;;4.47;2.37;;;12.10;99.90;;;;;;4977059;28;20174;-80
2023/09/14 02:27:27;;;;;;;9.50;2.40;;;12.10;99.90;;;;;;4977031;28;20186;-80
2023/09/14 02:29:54;;;;;;;9.03;2.70;;;12.10;99.90;;;;;;4976301;28;20681;-81
2023/09/14 02:32:19;;;;;;;9.57;2.43;;;12.00;99.90;;;;;;4977027;28;20277;-80
2023/09/14 02:34:45;;;;;;;4.30;1.80;;;12.00;99.90;;;;;;4977512;28;20202;-80
2023/09/14 02:37:11;;;;;;;11.20;2.10;;;11.90;99.90;;;;;;4977116;28;20196;-80
2023/09/14 02:39:36;;;;;;;4.77;2.10;;;11.90;99.90;;;;;;4977800;28;20744;-80
2023/09/14 02:42:02;;;;;;;5.93;2.10;;;11.90;99.90;;;;;;4976086;28;20580;-80
2023/09/14 02:44:27;;;;;;;6.40;2.30;;;11.90;99.90;;;;;;4976922;28;20658;-80
2023/09/14 02:46:53;;;;;;;4.80;1.97;;;11.90;99.90;;;;;;4978221;28;20229;-80
2023/09/14 02:49:19;;;;;;;10.50;2.50;;;11.80;99.90;;;;;;4976013;28;20218;-80
2023/09/14 02:51:44;;;;;;;2.57;1.80;;;11.90;99.90;;;;;;4977459;28;20198;-80
2023/09/14 02:54:10;;;;;;;5.47;2.60;;;11.90;99.90;;;;;;4976415;28;20180;-80
2023/09/14 02:56:35;;;;;;;5.10;2.20;;;11.90;99.90;;;;;;4977745;28;20645;-80
2023/09/14 02:59:01;;;;;;;10.97;2.37;;;11.90;99.90;;;;;;4978020;28;20237;-80
2023/09/14 03:01:28;;;;;;;4.17;2.37;;;11.90;99.90;;;;;;4978440;28;20201;-80
2023/09/14 03:03:53;;;;;;;7.07;2.20;;;11.90;99.90;;;;;;4978039;28;20174;-80
2023/09/14 03:06:19;;;;;;;4.53;2.60;;;11.90;99.90;;;;;;4978295;28;20185;-80
2023/09/14 03:08:44;;;;;;;4.73;2.70;;;11.90;99.90;;;;;;4977924;28;20191;-80
2023/09/14 03:11:10;;;;;;;5.30;2.70;;;11.90;99.90;;;;;;4978018;28;20297;-80
2023/09/14 03:13:35;;;;;;;4.70;2.20;;;12.00;99.90;;;;;;4981956;28;20210;-80
2023/09/14 03:16:01;;;;;;;11.33;2.80;;;12.10;99.90;;;;;;4979966;28;20174;-80
2023/09/14 03:18:27;;;;;;;5.73;2.60;;;12.10;99.90;;;;;;4980490;28;20285;-80
2023/09/14 03:20:54;;;;;;;8.00;3.03;;;12.10;99.90;;;;;;4980486;28;20194;-80
2023/09/14 03:23:20;;;;;;;4.87;2.40;;;12.10;99.90;;;;;;4979973;28;20171;-80
2023/09/14 03:25:48;;;;;;;16.83;2.63;;;12.00;99.90;;;;;;4981310;28;20270;-80
2023/09/14 03:28:14;;;;;;;5.57;2.23;;;12.10;99.90;;;;;;4982298;28;20294;-80
2023/09/14 03:30:40;;;;;;;7.60;2.33;;;12.10;99.90;;;;;;4979400;28;20183;-80
2023/09/14 03:33:06;;;;;;;6.20;2.20;;;12.10;99.90;;;;;;4980795;28;20565;-80
2023/09/14 03:35:31;;;;;;;6.20;2.30;;;12.10;99.90;;;;;;4979592;28;20197;-80
2023/09/14 03:37:57;;;;;;;5.37;1.90;;;12.10;99.90;;;;;;4978615;28;20200;-80
2023/09/14 03:40:22;;;;;;;11.47;2.70;;;12.10;99.90;;;;;;4979747;28;20265;-80
2023/09/14 03:42:49;;;;;;;10.43;2.27;;;12.00;99.90;;;;;;4979104;28;20205;-80
2023/09/14 03:45:14;;;;;;;7.33;2.03;;;12.00;99.90;;;;;;4979734;28;20178;-80
2023/09/14 03:47:40;;;;;;;12.40;2.87;;;12.10;99.90;;;;;;4980783;28;20185;-80
2023/09/14 03:50:06;;;;;;;7.67;2.50;;;12.00;99.90;;;;;;4979821;28;20186;-80
2023/09/14 03:52:32;;;;;;;7.67;2.47;;;12.00;99.90;;;;;;4979931;28;20204;-80
2023/09/14 03:54:58;;;;;;;6.83;2.13;;;12.00;99.90;;;;;;4979453;28;20181;-80
2023/09/14 03:57:24;;;;;;;7.10;2.50;;;11.90;99.90;;;;;;4978569;28;20197;-80
2023/09/14 03:59:51;;;;;;;5.50;2.13;;;11.90;99.90;;;;;;4980749;28;20233;-80
2023/09/14 04:02:17;;;;;;;7.53;2.57;;;11.90;99.90;;;;;;4978774;28;20194;-80
2023/09/14 04:04:43;;;;;;;6.83;2.77;;;11.90;99.90;;;;;;4981039;28;20178;-81
2023/09/14 04:07:09;;;;;;;4.10;2.57;;;11.90;99.90;;;;;;4979781;28;20634;-81
2023/09/14 04:09:35;;;;;;;6.20;2.60;;;11.90;99.90;;;;;;4978408;28;20193;-81
2023/09/14 04:12:00;;;;;;;7.33;2.60;;;11.90;99.90;;;;;;4978157;28;20285;-80
2023/09/14 04:14:26;;;;;;;5.97;2.23;;;11.80;99.90;;;;;;4979981;28;20179;-80
2023/09/14 04:16:56;;;;;;;5.53;2.83;;;11.80;99.90;;;;;;4980491;28;20677;-81
2023/09/14 04:19:25;;;;;;;7.80;2.10;;;11.80;99.90;;;;;;4978543;28;20593;-81
2023/09/14 04:21:51;;;;;;;6.90;2.13;;;11.80;99.90;;;;;;4977737;28;20209;-80
2023/09/14 04:24:17;;;;;;;6.60;2.23;;;11.80;99.90;;;;;;4978419;28;20178;-80
2023/09/14 04:26:42;;;;;;;10.63;2.20;;;11.80;99.90;;;;;;4980150;28;20174;-81
2023/09/14 04:29:08;;;;;;;9.83;2.50;;;11.80;99.90;;;;;;4979564;28;20195;-80
2023/09/14 04:31:36;;;;;;;3.53;2.40;;;11.80;99.90;;;;;;4979871;28;20197;-81
2023/09/14 04:34:02;;;;;;;5.07;2.30;;;11.80;99.90;;;;;;4981074;28;20194;-80
2023/09/14 04:36:28;;;;;;;9.50;2.27;;;11.80;99.90;;;;;;4978811;28;20230;-80
2023/09/14 04:38:53;;;;;;;7.93;2.00;;;11.80;99.90;;;;;;4979268;28;20202;-81
2023/09/14 04:41:19;;;;;;;5.53;2.10;;;11.80;99.90;;;;;;4979780;28;20201;-81
2023/09/14 04:43:45;;;;;;;11.67;2.43;;;11.80;99.90;;;;;;4977517;28;20198;-80
2023/09/14 04:46:10;;;;;;;4.87;2.50;;;11.80;99.90;;;;;;4978324;28;20178;-80
2023/09/14 04:48:41;;;;;;;7.83;2.27;;;11.80;99.90;;;;;;4978344;28;20205;-81
2023/09/14 04:51:07;;;;;;;14.10;2.33;;;11.80;99.90;;;;;;4978028;28;20198;-80
2023/09/14 04:53:32;;;;;;;5.63;2.47;;;11.80;99.90;;;;;;4977638;28;20182;-80
2023/09/14 04:55:58;;;;;;;6.53;2.00;;;11.80;99.90;;;;;;4979476;28;20178;-80
2023/09/14 04:58:23;;;;;;;5.63;2.43;;;11.80;99.90;;;;;;4979139;28;20581;-79
2023/09/14 05:00:49;;;;;;;6.20;2.30;;;11.80;99.90;;;;;;4977385;28;20551;-80
2023/09/14 05:03:18;;;;;;;5.57;2.40;;;11.80;99.90;;;;;;4978602;28;20174;-80
2023/09/14 05:05:50;;;;;;;6.23;2.80;;;12.00;99.90;;;;;;4977597;28;20214;-79
2023/09/14 05:08:15;;;;;;;3.53;2.13;;;11.80;99.90;;;;;;4976397;28;20171;-79
2023/09/14 05:10:41;;;;;;;8.23;2.17;;;11.80;99.90;;;;;;4975771;28;20214;-79
2023/09/14 05:13:06;;;;;;;6.27;2.20;;;11.80;99.90;;;;;;4976737;28;20222;-79
2023/09/14 05:15:32;;;;;;;8.10;2.43;;;11.70;99.90;;;;;;4976866;28;20611;-79
2023/09/14 05:17:57;;;;;;;6.67;2.57;;;11.80;99.90;;;;;;4975563;28;20202;-80
2023/09/14 05:20:23;;;;;;;5.23;2.00;;;11.80;99.90;;;;;;4976046;28;20645;-79
2023/09/14 05:22:48;;;;;;;3.93;2.00;;;11.80;99.90;;;;;;4977805;28;20186;-80
2023/09/14 05:25:14;;;;;;;3.10;2.03;;;11.80;99.90;;;;;;4976319;28;20563;-79
2023/09/14 05:27:41;;;;;;;3.77;2.20;;;11.80;99.90;;;;;;4977302;28;20174;-79
2023/09/14 05:30:11;;;;;;;4.63;2.00;;;11.80;99.90;;;;;;4976191;28;20178;-80
2023/09/14 05:32:37;;;;;;;8.47;2.17;;;11.80;99.90;;;;;;4976404;28;20232;-80
2023/09/14 05:35:05;;;;;;;3.40;2.10;;;11.70;99.90;;;;;;4976176;28;20605;-80
2023/09/14 05:37:31;;;;;;;4.07;2.30;;;11.80;99.90;;;;;;4977918;28;20221;-80
2023/09/14 05:39:56;;;;;;;16.13;3.53;;;11.80;99.90;;;;;;4977774;28;20178;-80
2023/09/14 05:42:23;;;;;;;4.97;2.47;;;11.80;99.90;;;;;;4976994;28;20257;-79
2023/09/14 05:44:49;;;;;;;6.53;2.40;;;11.80;99.90;;;;;;4977236;28;20197;-80
2023/09/14 05:47:15;;;;;;;5.97;2.20;;;11.80;99.90;;;;;;4975481;28;20182;-83
2023/09/14 05:49:41;;;;;;;6.80;2.77;;;11.80;99.90;;;;;;4977145;28;20185;-79
2023/09/14 05:52:08;;;;;;;6.17;2.67;;;11.80;99.90;;;;;;4974600;28;20202;-80
2023/09/14 05:54:33;;;;;;;5.50;2.20;;;11.80;99.90;;;;;;4976773;28;20659;-80
2023/09/14 05:56:59;;;;;;;5.53;2.13;;;11.80;99.90;;;;;;4978878;28;20178;-84
2023/09/14 05:59:24;;;;;;;13.47;2.50;;;11.90;99.90;;;;;;4977167;28;20198;-83
2023/09/14 06:01:51;;;;;;;10.13;2.73;;;11.90;99.90;;;;;;4975741;28;20521;-83
2023/09/14 06:04:17;;;;;;;9.90;2.77;;;11.90;99.90;;;;;;4976158;28;20248;-83
2023/09/14 06:06:43;;;;;;;7.10;2.40;;;12.00;99.90;;;;;;4977557;28;20641;-83
2023/09/14 06:09:08;;;;;;;7.37;2.23;;;12.00;99.90;;;;;;4977832;28;20178;-83
2023/09/14 06:11:34;;;;;;;8.03;2.70;;;11.90;99.90;;;;;;4976554;28;20214;-83
2023/09/14 06:13:59;;;;;;;4.80;2.60;;;12.00;99.90;;;;;;4977091;28;20178;-83
2023/09/14 06:16:26;;;;;;;6.00;2.07;;;12.00;99.90;;;;;;4977647;28;20186;-83
2023/09/14 06:18:52;;;;;;;6.20;2.57;;;12.00;99.90;;;;;;4979896;28;20205;-83
2023/09/14 06:21:18;;;;;;;5.20;2.60;;;12.00;99.90;;;;;;4977247;28;20281;-83
2023/09/14 06:23:45;;;;;;;6.57;2.63;;;12.10;99.90;;;;;;4977702;28;20202;-85
2023/09/14 06:26:10;;;;;;;10.53;2.50;;;12.10;99.90;;;;;;4978110;28;20212;-83
2023/09/14 06:28:36;;;;;;;9.83;2.67;;;12.10;99.90;;;;;;4978136;28;20254;-83
2023/09/14 06:31:01;;;;;;;7.00;2.20;;;12.50;99.90;;;;;;4979106;28;20225;-83
2023/09/14 06:33:27;;;;;;;7.73;2.30;;;12.20;99.90;;;;;;4978213;28;20206;-83
2023/09/14 06:35:52;;;;;;;7.23;2.60;;;12.20;99.90;;;;;;4979616;28;20210;-84
2023/09/14 06:38:18;;;;;;;8.57;2.00;;;12.20;99.90;;;;;;4978215;28;20581;-83
2023/09/14 06:40:44;;;;;;;7.27;2.47;;;12.20;99.90;;;;;;4978731;28;20575;-84
2023/09/14 06:43:10;;;;;;;8.93;2.40;;;12.40;99.90;;;;;;4980407;28;20306;-83
2023/09/14 06:45:35;;;;;;;7.97;2.30;;;12.30;99.90;;;;;;4980017;28;20615;-83
2023/09/14 06:48:01;;;;;;;9.83;2.83;;;12.30;99.90;;;;;;4982059;28;20214;-83
2023/09/14 06:50:26;;;;;;;5.57;2.40;;;12.40;99.90;;;;;;4982985;28;20178;-84
2023/09/14 06:52:52;;;;;;;6.17;2.73;;;12.40;99.90;;;;;;4982433;28;20202;-83
2023/09/14 06:55:17;;;;;;;7.40;2.30;;;12.50;99.90;;;;;;4982665;28;20170;-83
2023/09/14 06:57:43;;;;;;;9.27;3.10;;;12.50;99.90;;;;;;4981736;28;20511;-84
2023/09/14 07:00:19;;;;;;;8.50;2.30;;;12.60;99.90;;;;;;4980919;28;20265;-84
2023/09/14 07:02:44;;;;;;;4.63;2.63;;;12.60;99.90;;;;;;4982645;28;20236;-84
2023/09/14 07:05:10;;;;;;;4.63;2.53;;;12.60;99.90;;;;;;4979161;28;20642;-84
2023/09/14 07:07:37;;;;;;;4.77;2.37;;;12.70;99.90;;;;;;4978875;28;20186;-83
2023/09/14 07:10:04;;;;;;;5.73;2.77;;;12.80;99.90;;;;;;4979306;28;20210;-84
2023/09/14 07:12:29;;;;;;;5.20;2.50;;;12.80;99.90;;;;;;4980637;28;20198;-84
2023/09/14 07:14:55;;;;;;;9.80;3.03;;;12.90;99.90;;;;;;4979667;28;20229;-84
2023/09/14 07:17:20;;;;;;;10.37;2.60;;;12.90;99.90;;;;;;4980579;28;20189;-83
2023/09/14 07:19:46;;;;;;;8.93;2.80;;;13.00;99.90;;;;;;4980648;28;20210;-83
2023/09/14 07:22:11;;;;;;;7.23;3.37;;;13.00;99.90;;;;;;4980670;28;20190;-83
2023/09/14 07:24:37;;;;;;;11.27;4.57;;;13.10;99.90;;;;;;4980727;28;20181;-83
2023/09/14 07:27:03;;;;;;;10.17;4.47;;;13.20;99.90;;;;;;4981562;28;20170;-84
2023/09/14 07:29:28;;;;;;;14.97;7.73;;;13.30;99.90;;;;;;4981652;28;20538;-84
2023/09/14 07:31:55;;;;;;;19.60;7.70;;;13.40;99.90;;;;;;4980129;28;20205;-83
2023/09/14 07:34:20;;;;;;;25.17;6.80;;;13.60;99.90;;;;;;4980092;28;20218;-83
2023/09/14 07:36:46;;;;;;;16.37;8.03;;;13.60;99.90;;;;;;4981924;28;20566;-83
2023/09/14 07:39:11;;;;;;;17.90;9.40;;;13.70;99.90;;;;;;4981891;28;20736;-83
2023/09/14 07:41:37;;;;;;;19.40;9.87;;;13.70;99.90;;;;;;4982392;28;20214;-83
2023/09/14 07:44:03;;;;;;;21.77;11.20;;;13.80;99.90;;;;;;4981235;28;20175;-83
2023/09/14 07:46:28;;;;;;;18.77;10.77;;;13.80;99.90;;;;;;4981359;28;20557;-84
2023/09/14 07:48:54;;;;;;;19.77;9.80;;;13.90;99.90;;;;;;4983281;28;20186;-83
2023/09/14 07:51:19;;;;;;;15.27;9.63;;;13.90;99.90;;;;;;4980353;28;20202;-83
2023/09/14 07:53:45;;;;;;;16.53;9.17;;;14.10;99.90;;;;;;4979798;28;20236;-83
2023/09/14 07:56:10;;;;;;;14.53;8.43;;;14.00;99.90;;;;;;4980364;28;20662;-84
2023/09/14 07:58:36;;;;;;;15.97;9.03;;;14.20;99.90;;;;;;4980639;28;20194;-83
2023/09/14 08:01:01;;;;;;;19.13;8.77;;;14.10;99.90;;;;;;4980839;28;20621;-83
2023/09/14 08:03:27;;;;;;;13.93;7.97;;;14.20;99.90;;;;;;4980566;28;20170;-83
2023/09/14 08:05:53;;;;;;;15.77;7.67;;;14.40;99.90;;;;;;4980565;28;20210;-83
2023/09/14 08:08:19;;;;;;;14.53;7.60;;;14.40;99.90;;;;;;4981351;28;20182;-84
2023/09/14 08:10:50;;;;;;;10.43;7.10;;;14.30;99.90;;;;;;4981109;28;20189;-83
2023/09/14 08:13:15;;;;;;;16.70;8.53;;;14.30;99.90;;;;;;4981635;28;20186;-82
2023/09/14 08:15:41;;;;;;;16.67;7.93;;;14.60;99.90;;;;;;4983884;28;20261;-83
2023/09/14 08:18:06;;;;;;;14.57;7.57;;;14.50;99.90;;;;;;4981986;28;20619;-82
2023/09/14 08:20:37;;;;;;;14.03;7.47;;;14.50;99.90;;;;;;4986237;28;20216;-84
2023/09/14 08:23:03;;;;;;;10.80;7.70;;;14.60;99.90;;;;;;4986293;28;20171;-82
2023/09/14 08:25:29;;;;;;;12.03;7.33;;;14.70;99.90;;;;;;4995583;28;20170;-83
2023/09/14 08:27:56;;;;;;;12.50;7.63;;;14.70;99.90;;;;;;4986774;28;20221;-83
2023/09/14 08:30:22;;;;;;;14.37;7.70;;;14.70;99.90;;;;;;4980911;28;20242;-82
2023/09/14 08:32:48;;;;;;;12.97;8.43;;;14.90;99.90;;;;;;4978510;28;20225;-83
2023/09/14 08:35:25;;;;;;;11.33;7.93;;;14.90;99.90;;;;;;4979377;28;20694;-82
2023/09/14 08:37:54;;;;;;;10.07;7.47;;;15.00;99.90;;;;;;4979198;28;20213;-83
2023/09/14 08:40:20;;;;;;;13.40;7.27;;;15.10;99.90;;;;;;4980800;28;20185;-83
2023/09/14 08:42:51;;;;;;;15.53;7.87;;;15.10;99.90;;;;;;4977950;28;20785;-82
2023/09/14 08:45:26;;;;;;;10.93;6.80;;;15.20;99.90;;;;;;4970902;28;20202;-82
2023/09/14 08:47:52;;;;;;;11.70;6.77;;;15.30;99.90;;;;;;4958974;29;20177;-83
2023/09/14 08:50:20;;;;;;;7.87;5.87;;;15.30;99.90;;;;;;4961593;28;20209;-83
2023/09/14 08:52:46;;;;;;;11.50;7.07;;;15.40;99.90;;;;;;4959509;28;20294;-83
2023/09/14 08:55:12;;;;;;;11.60;6.37;;;15.50;99.90;;;;;;4961626;29;20183;-83
2023/09/14 08:57:43;;;;;;;8.67;5.67;;;15.70;99.90;;;;;;4965861;28;20189;-83
2023/09/14 09:00:15;;;;;;;9.80;5.23;;;15.60;99.90;;;;;;4980736;28;20190;-84
2023/09/14 09:02:45;;;;;;;10.10;5.33;;;15.70;99.90;;;;;;4992343;28;20204;-84
2023/09/14 09:05:12;;;;;;;8.67;5.43;;;15.70;99.90;;;;;;4993705;28;20182;-85
2023/09/14 09:07:40;;;;;;;8.90;4.37;;;15.80;99.90;;;;;;4992497;28;20254;-84
2023/09/14 09:10:16;;;;;;;7.87;4.70;;;15.90;99.90;;;;;;4992878;28;20205;-83
2023/09/14 09:12:45;;;;;;;8.93;4.70;;;15.90;99.90;;;;;;4992300;28;20212;-83
2023/09/14 09:15:11;;;;;;;9.97;4.57;;;16.10;99.90;;;;;;4992197;28;20178;-84
2023/09/14 09:17:39;;;;;;;8.50;4.33;;;16.40;99.90;;;;;;4986242;28;20289;-84
2023/09/14 09:20:19;;;;;;;6.80;4.10;;;16.50;99.90;;;;;;4977362;28;20249;-85
2023/09/14 09:22:45;;;;;;;7.10;4.10;;;16.40;99.90;;;;;;4977181;28;20233;-83
2023/09/14 09:25:12;;;;;;;4.67;3.73;;;16.50;99.90;;;;;;4978594;28;20635;-84
2023/09/14 09:27:39;;;;;;;7.23;4.50;;;16.60;99.90;;;;;;4976865;28;20242;-84
2023/09/14 09:30:06;;;;;;;8.97;4.50;;;16.80;99.90;;;;;;4975251;28;20198;-84
2023/09/14 09:32:32;;;;;;;5.73;4.47;;;16.80;99.90;;;;;;4976188;28;20218;-83
2023/09/14 09:35:19;;;;;;;11.10;4.10;;;16.80;99.90;;;;;;4980658;28;20204;-83
2023/09/14 09:37:45;;;;;;;11.03;3.37;;;17.00;99.90;;;;;;4980997;28;20198;-83
2023/09/14 09:40:15;;;;;;;8.70;3.67;;;17.00;99.90;;;;;;4979919;28;20697;-83
2023/09/14 09:42:42;;;;;;;5.43;3.10;;;17.20;99.90;;;;;;4979266;28;20229;-82
2023/09/14 09:45:09;;;;;;;7.77;2.80;;;17.10;99.90;;;;;;4978716;28;20184;-83
2023/09/14 09:47:35;;;;;;;6.10;3.30;;;17.10;99.90;;;;;;4981074;28;20215;-83
2023/09/14 09:50:04;;;;;;;4.37;3.17;;;17.20;99.90;;;;;;4978998;28;20185;-83
2023/09/14 09:52:32;;;;;;;7.27;3.17;;;17.10;99.90;;;;;;4979382;28;20301;-83
2023/09/14 09:54:58;;;;;;;6.50;2.93;;;17.20;99.90;;;;;;4978357;28;20194;-83
2023/09/14 09:57:33;;;;;;;6.90;3.00;;;17.10;99.90;;;;;;4977084;28;20192;-83
2023/09/14 09:59:58;;;;;;;6.47;2.73;;;17.20;99.90;;;;;;4977971;28;20193;-83
2023/09/14 10:02:31;;;;;;;6.67;2.60;;;17.20;99.90;;;;;;4977756;28;20204;-83
2023/09/14 10:04:57;;;;;;;4.77;2.80;;;17.10;99.90;;;;;;4978968;28;20167;-83
2023/09/14 10:07:23;;;;;;;7.80;2.90;;;17.00;99.90;;;;;;4978217;28;20197;-83
2023/09/14 10:09:54;;;;;;;6.73;2.73;;;17.10;99.90;;;;;;4979469;28;20570;-83
2023/09/14 10:12:24;;;;;;;4.40;2.33;;;17.30;99.90;;;;;;4980697;28;20232;-83
2023/09/14 10:14:52;;;;;;;5.57;2.23;;;17.30;99.90;;;;;;4979028;28;20273;-83
2023/09/14 10:17:22;;;;;;;5.50;2.17;;;17.40;99.90;;;;;;4978631;28;20618;-83
2023/09/14 10:19:49;;;;;;;4.67;2.20;;;17.40;99.90;;;;;;4977884;28;20190;-83
2023/09/14 10:22:17;;;;;;;5.20;2.27;;;17.50;99.90;;;;;;4982605;28;20228;-84
2023/09/14 10:24:43;;;;;;;5.90;2.03;;;17.60;99.90;;;;;;4982954;28;20242;-83
2023/09/14 10:27:09;;;;;;;6.10;2.57;;;17.70;99.90;;;;;;4981919;28;20264;-83
2023/09/14 10:29:39;;;;;;;3.90;2.23;;;17.80;99.90;;;;;;4982962;28;20174;-83
2023/09/14 10:32:05;;;;;;;3.83;1.90;;;17.90;99.90;;;;;;4983545;28;20653;-83
2023/09/14 10:34:34;;;;;;;6.03;2.50;;;17.90;99.90;;;;;;4984073;28;20295;-83
2023/09/14 10:37:01;;;;;;;4.30;2.30;;;17.80;99.90;;;;;;4983662;28;20181;-83
2023/09/14 10:39:27;;;;;;;3.20;1.80;;;17.90;99.90;;;;;;4985075;28;20609;-83
2023/09/14 10:41:53;;;;;;;6.23;1.90;;;17.90;99.90;;;;;;4983306;28;20201;-83
2023/09/14 10:44:19;;;;;;;5.00;2.03;;;17.90;99.90;;;;;;4985171;28;20181;-83
2023/09/14 10:46:47;;;;;;;3.83;2.20;;;18.00;99.90;;;;;;4982944;28;20186;-82
2023/09/14 10:49:14;;;;;;;5.47;2.20;;;17.80;99.90;;;;;;4982805;28;20676;-82
2023/09/14 10:51:41;;;;;;;5.13;2.13;;;17.90;99.90;;;;;;4982950;28;20211;-83
2023/09/14 10:54:07;;;;;;;5.03;2.40;;;17.80;99.90;;;;;;4983132;28;20210;-83
2023/09/14 10:56:33;;;;;;;5.47;2.37;;;17.90;99.90;;;;;;4981772;28;20237;-83
2023/09/14 10:59:08;;;;;;;3.93;2.50;;;18.00;99.90;;;;;;4981813;28;20241;-84
2023/09/14 11:01:47;;;;;;;6.20;2.20;;;18.10;99.90;;;;;;4981930;28;20193;-84
2023/09/14 11:04:22;;;;;;;5.70;2.27;;;18.00;99.90;;;;;;4985461;28;20154;-83
2023/09/14 11:06:50;;;;;;;5.50;2.43;;;18.10;99.90;;;;;;4984260;28;20162;-83
2023/09/14 11:09:17;;;;;;;5.30;2.40;;;18.10;1.00;;;;;;4984440;28;20178;-83
2023/09/14 11:11:45;;;;;;;7.87;2.27;;;18.30;99.90;;;;;;4983890;28;20269;-83
2023/09/14 11:14:13;;;;;;;5.23;2.10;;;18.30;1.00;;;;;;4983675;28;20232;-83
2023/09/14 11:16:49;;;;;;;4.93;2.23;;;18.40;99.90;;;;;;4984569;28;20646;-83
2023/09/14 11:19:30;;;;;;;5.97;2.20;;;18.60;39.80;;;;;;4986339;28;20189;-83
2023/09/14 11:22:05;;;;;;;6.70;2.03;;;18.60;99.90;;;;;;4982807;28;20216;-83
2023/09/14 11:24:36;;;;;;;5.20;2.30;;;18.60;1.00;;;;;;4984901;28;20174;-83
2023/09/14 11:27:02;;;;;;;3.83;2.30;;;18.60;2.70;;;;;;4984562;28;20218;-82
2023/09/14 11:29:31;;;;;;;3.07;2.23;;;18.80;1.00;;;;;;4986464;28;20178;-83
2023/09/14 11:32:06;;;;;;;4.33;2.30;;;18.80;1.00;;;;;;4983535;28;20208;-83
2023/09/14 11:34:35;;;;;;;4.10;2.40;;;18.90;99.90;;;;;;4984100;28;20201;-83
2023/09/14 11:37:03;;;;;;;4.50;2.10;;;19.00;99.90;;;;;;4983663;28;20269;-83
2023/09/14 11:39:31;;;;;;;5.43;2.17;;;18.90;1.00;;;;;;4984972;28;20194;-83
2023/09/14 11:42:01;;;;;;;4.93;2.60;;;19.00;99.90;;;;;;4982820;28;20328;-83
2023/09/14 11:44:31;;;;;;;3.67;2.23;;;18.90;63.30;;;;;;4983880;28;20190;-84
2023/09/14 11:46:59;;;;;;;4.80;2.53;;;18.90;99.90;;;;;;4983907;28;20198;-83
2023/09/14 11:49:30;;;;;;;3.13;2.30;;;18.80;25.50;;;;;;4982111;28;20179;-84
2023/09/14 11:51:56;;;;;;;5.17;2.60;;;18.90;99.90;;;;;;4982807;28;20208;-84
2023/09/14 11:54:27;;;;;;;4.33;2.33;;;18.90;99.90;;;;;;4983478;28;20170;-84
2023/09/14 11:56:58;;;;;;;7.80;2.93;;;19.00;99.90;;;;;;4982698;28;20166;-83
2023/09/14 11:59:28;;;;;;;3.97;2.57;;;18.90;99.90;;;;;;4985128;28;20666;-83
2023/09/14 12:01:54;;;;;;;5.90;2.43;;;18.90;1.00;;;;;;4984704;28;20202;-83
2023/09/14 12:04:24;;;;;;;4.87;2.23;;;18.90;99.90;;;;;;4986211;28;20181;-85
2023/09/14 12:06:50;;;;;;;3.63;2.57;;;19.00;54.10;;;;;;4986075;28;20170;-84
2023/09/14 12:09:16;;;;;;;3.13;2.03;;;19.30;99.90;;;;;;4980485;28;20250;-86
2023/09/14 12:11:43;;;;;;;5.07;2.37;;;19.20;1.00;;;;;;4975513;28;20221;-86
2023/09/14 12:14:09;;;;;;;4.00;2.57;;;19.30;1.00;;;;;;4975542;28;20178;-86
2023/09/14 12:16:37;;;;;;;5.87;2.70;;;19.50;1.00;;;;;;4975494;28;20182;-86
2023/09/14 12:19:03;;;;;;;5.43;2.33;;;19.50;1.00;;;;;;4976966;28;20194;-85
2023/09/14 12:21:28;;;;;;;3.30;2.20;;;19.50;1.00;;;;;;4974904;28;20201;-86
2023/09/14 12:23:55;;;;;;;5.33;2.90;;;19.70;1.00;;;;;;4975259;28;20273;-85
2023/09/14 12:26:21;;;;;;;9.27;3.80;;;19.60;1.00;;;;;;4975360;28;20174;-86
2023/09/14 12:28:58;;;;;;;5.30;2.90;;;19.50;1.00;;;;;;4976655;28;20650;-86
2023/09/14 12:31:26;;;;;;;4.40;2.50;;;19.70;1.00;;;;;;4980500;28;20221;-86
2023/09/14 12:33:53;;;;;;;5.17;2.80;;;19.80;1.00;;;;;;4974983;28;20292;-86
2023/09/14 12:36:19;;;;;;;5.20;3.00;;;19.80;1.00;;;;;;4975550;28;20186;-86
2023/09/14 12:38:47;;;;;;;4.63;2.90;;;19.80;96.60;;;;;;4975754;28;20201;-86
2023/09/14 12:41:14;;;;;;;4.77;2.90;;;19.80;99.90;;;;;;4975906;28;20194;-86
2023/09/14 12:43:40;;;;;;;4.30;2.50;;;20.10;1.00;;;;;;4974259;28;20185;-85
2023/09/14 12:46:07;;;;;;;4.10;2.87;;;19.70;99.90;;;;;;4976301;28;20630;-86